createdAt,value
2023-03-25T00:03:39.000Z,977.85
2023-03-25T00:08:33.000Z,977.88
2023-03-25T00:13:28.000Z,977.84
2023-03-25T00:18:22.000Z,977.80
2023-03-25T00:23:15.000Z,977.85
2023-03-25T00:28:08.000Z,977.73
2023-03-25T00:33:02.000Z,977.76
2023-03-25T00:37:55.000Z,977.81
2023-03-25T00:42:49.000Z,977.75
2023-03-25T00:47:46.000Z,977.83
2023-03-25T00:52:38.000Z,977.74
2023-03-25T00:57:29.000Z,977.71
2023-03-25T01:02:23.000Z,977.70
2023-03-25T01:07:16.000Z,977.58
2023-03-25T01:12:09.000Z,977.60
2023-03-25T01:17:04.000Z,977.52
2023-03-25T01:21:58.000Z,977.48
2023-03-25T01:26:52.000Z,977.42
2023-03-25T01:31:46.000Z,977.33
2023-03-25T01:36:40.000Z,977.34
2023-03-25T01:41:33.000Z,977.43
2023-03-25T01:46:26.000Z,977.33
2023-03-25T01:51:24.000Z,977.36
2023-03-25T01:56:14.000Z,977.29
2023-03-25T02:01:08.000Z,977.30
2023-03-25T02:06:00.000Z,977.31
2023-03-25T02:10:54.000Z,977.29
2023-03-25T02:15:48.000Z,977.24
2023-03-25T02:20:40.000Z,977.26
2023-03-25T02:25:35.000Z,977.32
2023-03-25T02:30:28.000Z,977.21
2023-03-25T02:35:22.000Z,977.26
2023-03-25T02:40:15.000Z,977.40
2023-03-25T02:45:08.000Z,977.28
2023-03-25T02:50:02.000Z,977.15
2023-03-25T02:54:57.000Z,977.17
2023-03-25T02:59:48.000Z,977.07
2023-03-25T03:04:43.000Z,976.98
2023-03-25T03:09:37.000Z,976.95
2023-03-25T03:14:31.000Z,976.83
2023-03-25T03:19:25.000Z,976.79
2023-03-25T03:24:19.000Z,976.71
2023-03-25T03:29:14.000Z,976.84
2023-03-25T03:34:08.000Z,976.95
2023-03-25T03:39:02.000Z,977.08
2023-03-25T03:43:56.000Z,977.16
2023-03-25T03:48:51.000Z,977.18
2023-03-25T03:53:44.000Z,977.23
2023-03-25T03:58:37.000Z,977.33
2023-03-25T04:03:29.000Z,977.41
2023-03-25T04:08:23.000Z,977.37
2023-03-25T04:13:17.000Z,977.38
2023-03-25T04:18:11.000Z,977.46
2023-03-25T04:23:05.000Z,977.48
2023-03-25T04:27:57.000Z,977.47
2023-03-25T04:32:51.000Z,977.49
2023-03-25T04:37:45.000Z,977.61
2023-03-25T04:42:39.000Z,977.47
2023-03-25T04:47:34.000Z,977.51
2023-03-25T04:52:27.000Z,977.61
2023-03-25T04:57:21.000Z,977.55
2023-03-25T05:02:16.000Z,977.60
2023-03-25T05:07:07.000Z,977.52
2023-03-25T05:12:01.000Z,977.62
2023-03-25T05:16:56.000Z,977.49
2023-03-25T05:21:49.000Z,977.61
2023-03-25T05:26:44.000Z,977.60
2023-03-25T05:31:38.000Z,977.64
2023-03-25T05:36:33.000Z,977.63
2023-03-25T05:41:27.000Z,977.76
2023-03-25T05:46:21.000Z,977.77
2023-03-25T05:51:15.000Z,977.81
2023-03-25T05:56:09.000Z,977.73
2023-03-25T06:01:03.000Z,977.68
2023-03-25T06:05:57.000Z,977.71
2023-03-25T06:10:50.000Z,977.74
2023-03-25T06:15:44.000Z,977.80
2023-03-25T06:20:39.000Z,977.89
2023-03-25T06:25:32.000Z,977.78
2023-03-25T06:30:27.000Z,977.80
2023-03-25T06:35:21.000Z,977.86
2023-03-25T06:40:15.000Z,977.92
2023-03-25T06:45:08.000Z,977.88
2023-03-25T06:50:02.000Z,977.91
2023-03-25T06:54:56.000Z,977.84
2023-03-25T06:59:51.000Z,977.70
2023-03-25T07:04:45.000Z,977.85
2023-03-25T07:09:39.000Z,977.81
2023-03-25T07:14:33.000Z,977.79
2023-03-25T07:19:28.000Z,977.73
2023-03-25T07:24:21.000Z,977.67
2023-03-25T07:29:12.000Z,977.63
2023-03-25T07:34:06.000Z,977.68
2023-03-25T07:39:00.000Z,977.72
2023-03-25T07:43:54.000Z,977.67
2023-03-25T07:48:48.000Z,977.68
2023-03-25T07:53:43.000Z,977.58
2023-03-25T07:58:37.000Z,977.61
2023-03-25T08:03:31.000Z,977.52
2023-03-25T08:08:25.000Z,977.53
2023-03-25T08:13:18.000Z,977.60
2023-03-25T08:18:12.000Z,977.62
2023-03-25T08:23:06.000Z,977.54
2023-03-25T08:28:00.000Z,977.44
2023-03-25T08:32:54.000Z,977.57
2023-03-25T08:37:48.000Z,977.92
2023-03-25T08:42:42.000Z,978.25
2023-03-25T08:47:35.000Z,978.16
2023-03-25T08:52:30.000Z,978.37
2023-03-25T08:57:24.000Z,978.42
2023-03-25T09:02:17.000Z,978.46
2023-03-25T09:07:12.000Z,978.49
2023-03-25T09:12:05.000Z,978.55
2023-03-25T09:17:00.000Z,978.64
2023-03-25T09:21:51.000Z,978.57
2023-03-25T09:26:45.000Z,978.52
2023-03-25T09:31:41.000Z,978.53
2023-03-25T09:36:37.000Z,978.45
2023-03-25T09:41:34.000Z,978.42
2023-03-25T09:46:25.000Z,978.46
2023-03-25T09:51:18.000Z,978.57
2023-03-25T09:56:11.000Z,978.54
2023-03-25T10:01:05.000Z,978.52
2023-03-25T10:06:00.000Z,978.56
2023-03-25T10:10:53.000Z,978.48
2023-03-25T10:15:47.000Z,978.51
2023-03-25T10:20:40.000Z,978.66
2023-03-25T10:25:33.000Z,978.61
2023-03-25T10:30:27.000Z,978.55
2023-03-25T10:35:21.000Z,978.70
2023-03-25T10:40:13.000Z,978.68
2023-03-25T10:45:07.000Z,978.77
2023-03-25T10:50:02.000Z,978.65
2023-03-25T10:54:56.000Z,978.58
2023-03-25T10:59:49.000Z,978.59
2023-03-25T11:04:40.000Z,978.62
2023-03-25T11:09:34.000Z,978.52
2023-03-25T11:14:30.000Z,978.56
2023-03-25T11:19:24.000Z,978.58
2023-03-25T11:24:19.000Z,978.55
2023-03-25T11:29:13.000Z,978.50
2023-03-25T11:34:07.000Z,978.69
2023-03-25T11:39:01.000Z,978.87
2023-03-25T11:43:54.000Z,979.04
2023-03-25T11:48:47.000Z,978.67
2023-03-25T11:53:42.000Z,978.60
2023-03-25T11:58:38.000Z,978.43
2023-03-25T12:03:33.000Z,978.36
2023-03-25T12:08:25.000Z,978.56
2023-03-25T12:13:18.000Z,978.72
2023-03-25T12:18:10.000Z,978.59
2023-03-25T12:23:04.000Z,978.69
2023-03-25T12:27:59.000Z,978.64
2023-03-25T12:32:52.000Z,978.43
2023-03-25T12:37:47.000Z,978.48
2023-03-25T12:42:41.000Z,978.34
2023-03-25T12:47:35.000Z,978.19
2023-03-25T12:52:28.000Z,978.17
2023-03-25T12:57:20.000Z,978.69
2023-03-25T13:02:13.000Z,978.37
2023-03-25T13:07:07.000Z,978.40
2023-03-25T13:12:01.000Z,978.82
2023-03-25T13:16:56.000Z,978.36
2023-03-25T13:21:51.000Z,978.26
2023-03-25T13:26:45.000Z,978.28
2023-03-25T13:31:39.000Z,978.14
2023-03-25T13:36:32.000Z,978.25
2023-03-25T13:41:25.000Z,978.05
2023-03-25T13:46:19.000Z,977.77
2023-03-25T13:51:13.000Z,977.98
2023-03-25T13:56:07.000Z,977.97
2023-03-25T14:01:01.000Z,978.09
2023-03-25T14:05:57.000Z,977.84
2023-03-25T14:10:47.000Z,977.88
2023-03-25T14:15:42.000Z,977.84
2023-03-25T14:20:36.000Z,977.83
2023-03-25T14:25:29.000Z,977.78
2023-03-25T14:30:23.000Z,978.05
2023-03-25T14:35:15.000Z,977.76
2023-03-25T14:40:09.000Z,977.96
2023-03-25T14:45:03.000Z,978.02
2023-03-25T14:49:57.000Z,977.81
2023-03-25T14:54:51.000Z,977.59
2023-03-25T14:59:44.000Z,977.67
2023-03-25T15:04:38.000Z,977.62
2023-03-25T15:09:32.000Z,977.75
2023-03-25T15:14:25.000Z,977.96
2023-03-25T15:19:20.000Z,977.68
2023-03-25T15:24:12.000Z,977.85
2023-03-25T15:29:04.000Z,977.73
2023-03-25T15:33:59.000Z,977.70
2023-03-25T15:38:53.000Z,977.73
2023-03-25T15:43:47.000Z,977.74
2023-03-25T15:48:41.000Z,977.85
2023-03-25T15:53:36.000Z,977.84
2023-03-25T15:58:30.000Z,977.80
2023-03-25T16:03:24.000Z,977.85
2023-03-25T16:08:17.000Z,977.77
2023-03-25T16:13:11.000Z,977.91
2023-03-25T16:18:04.000Z,978.06
2023-03-25T16:22:59.000Z,977.85
2023-03-25T16:27:53.000Z,978.45
2023-03-25T16:32:44.000Z,978.20
2023-03-25T16:37:39.000Z,978.37
2023-03-25T16:42:34.000Z,978.53
2023-03-25T16:47:27.000Z,978.44
2023-03-25T16:52:21.000Z,978.50
2023-03-25T16:57:14.000Z,978.45
2023-03-25T17:02:09.000Z,978.43
2023-03-25T17:07:03.000Z,978.58
2023-03-25T17:11:57.000Z,978.56
2023-03-25T17:16:52.000Z,978.60
2023-03-25T17:21:44.000Z,978.69
2023-03-25T17:26:41.000Z,978.69
2023-03-25T17:31:27.000Z,978.81
2023-03-25T17:36:21.000Z,978.74
2023-03-25T17:41:11.000Z,978.81
2023-03-25T17:46:05.000Z,978.82
2023-03-25T17:50:57.000Z,978.88
2023-03-25T17:55:51.000Z,978.84
2023-03-25T18:00:45.000Z,978.89
2023-03-25T18:05:39.000Z,978.88
2023-03-25T18:10:32.000Z,979.00
2023-03-25T18:15:26.000Z,979.00
2023-03-25T18:20:20.000Z,979.21
2023-03-25T18:25:14.000Z,979.12
2023-03-25T18:30:08.000Z,979.28
2023-03-25T18:35:01.000Z,979.23
2023-03-25T18:39:55.000Z,979.28
2023-03-25T18:44:49.000Z,979.37
2023-03-25T18:49:43.000Z,979.54
2023-03-25T18:54:40.000Z,979.61
2023-03-25T18:59:29.000Z,979.63
2023-03-25T19:04:23.000Z,979.62
2023-03-25T19:09:17.000Z,979.69
2023-03-25T19:14:10.000Z,979.77
2023-03-25T19:19:02.000Z,979.87
2023-03-25T19:23:57.000Z,979.83
2023-03-25T19:28:50.000Z,979.90
2023-03-25T19:33:45.000Z,979.97
2023-03-25T19:38:39.000Z,979.98
2023-03-25T19:43:33.000Z,979.94
2023-03-25T19:48:26.000Z,979.85
2023-03-25T19:53:20.000Z,979.85
2023-03-25T19:58:13.000Z,979.96
2023-03-25T20:03:07.000Z,979.83
2023-03-25T20:08:01.000Z,979.69
2023-03-25T20:12:55.000Z,979.64
2023-03-25T20:17:49.000Z,979.65
2023-03-25T20:22:43.000Z,979.69
2023-03-25T20:27:37.000Z,979.69
2023-03-25T20:32:31.000Z,979.45
2023-03-25T20:37:24.000Z,979.56
2023-03-25T20:42:18.000Z,979.41
2023-03-25T20:47:12.000Z,979.53
2023-03-25T20:52:06.000Z,979.58
2023-03-25T20:57:00.000Z,979.52
2023-03-25T21:01:54.000Z,979.52
2023-03-25T21:06:46.000Z,979.54
2023-03-25T21:11:40.000Z,979.65
2023-03-25T21:16:34.000Z,979.92
2023-03-25T21:21:31.000Z,979.88
2023-03-25T21:26:22.000Z,979.88
2023-03-25T21:31:14.000Z,979.97
2023-03-25T21:36:08.000Z,979.89
2023-03-25T21:41:02.000Z,979.86
2023-03-25T21:45:56.000Z,979.86
2023-03-25T21:50:50.000Z,980.00
2023-03-25T21:55:41.000Z,980.15
2023-03-25T22:00:35.000Z,980.05
2023-03-25T22:05:30.000Z,980.10
2023-03-25T22:10:22.000Z,980.04
2023-03-25T22:15:15.000Z,980.19
2023-03-25T22:20:09.000Z,980.10
2023-03-25T22:25:03.000Z,980.08
2023-03-25T22:29:57.000Z,980.23
2023-03-25T22:34:51.000Z,980.16
2023-03-25T22:39:44.000Z,980.22
2023-03-25T22:44:38.000Z,980.13
2023-03-25T22:49:32.000Z,980.04
2023-03-25T22:54:25.000Z,980.05
2023-03-25T22:59:18.000Z,980.16
2023-03-25T23:04:10.000Z,980.27
2023-03-25T23:09:04.000Z,980.20
2023-03-25T23:13:58.000Z,980.22
2023-03-25T23:18:52.000Z,980.27
2023-03-25T23:23:46.000Z,980.27
2023-03-25T23:28:40.000Z,980.09
2023-03-25T23:33:34.000Z,980.10
2023-03-25T23:38:28.000Z,980.16
2023-03-25T23:43:22.000Z,980.12
2023-03-25T23:48:13.000Z,980.31
2023-03-25T23:53:06.000Z,980.22
2023-03-25T23:58:00.000Z,980.24
